createdAt,value
2023-05-22T00:00:40.192Z,13.55
2023-05-22T00:06:45.990Z,12.07
2023-05-22T00:12:49.763Z,13.45
2023-05-22T00:18:58.694Z,15.02
2023-05-22T00:25:04.122Z,11.63
2023-05-22T00:31:08.027Z,13.45
2023-05-22T00:37:12.509Z,14.45
2023-05-22T00:43:18.524Z,17.75
2023-05-22T00:49:22.585Z,19.77
2023-05-22T00:55:25.284Z,18.83
2023-05-22T01:01:34.468Z,17.05
2023-05-22T01:07:38.617Z,16.38
2023-05-22T01:13:52.993Z,16.42
2023-05-22T01:20:14.532Z,19.33
2023-05-22T01:26:54.852Z,22.02
2023-05-22T01:33:02.797Z,17.88
2023-05-22T01:39:08.727Z,15.32
2023-05-22T01:45:13.480Z,15.80
2023-05-22T01:51:39.997Z,15.68
2023-05-22T01:57:58.504Z,16.38
2023-05-22T02:04:04.848Z,17.60
2023-05-22T02:10:11.938Z,16.48
2023-05-22T02:16:15.801Z,19.38
2023-05-22T02:22:19.664Z,18.38
2023-05-22T02:28:23.561Z,19.63
2023-05-22T02:34:27.712Z,20.48
2023-05-22T02:40:40.009Z,17.20
2023-05-22T02:46:43.714Z,17.40
2023-05-22T02:52:46.333Z,15.63
2023-05-22T02:58:49.669Z,17.77
2023-05-22T03:04:52.895Z,13.43
2023-05-22T03:10:57.403Z,15.55
2023-05-22T03:17:00.876Z,14.32
2023-05-22T03:23:11.554Z,14.75
2023-05-22T03:29:20.998Z,16.90
2023-05-22T03:35:30.172Z,15.00
2023-05-22T03:41:33.791Z,13.82
2023-05-22T03:47:37.541Z,12.30
2023-05-22T03:53:41.889Z,14.27
2023-05-22T03:59:45.787Z,13.95
2023-05-22T04:11:59.104Z,12.07
2023-05-22T04:18:02.335Z,13.07
2023-05-22T04:24:09.626Z,13.63
2023-05-22T04:30:18.358Z,12.93
2023-05-22T04:36:27.444Z,13.70
2023-05-22T04:42:32.006Z,13.32
2023-05-22T04:48:39.880Z,15.80
2023-05-22T04:54:47.586Z,12.25
2023-05-22T05:00:55.120Z,10.80
2023-05-22T05:07:06.432Z,15.10
2023-05-22T05:13:13.858Z,12.90
2023-05-22T05:19:18.514Z,12.85
2023-05-22T05:25:22.126Z,13.60
2023-05-22T05:31:26.444Z,10.25
2023-05-22T05:37:29.961Z,11.45
2023-05-22T05:43:33.775Z,12.85
2023-05-22T05:55:52.295Z,11.98
2023-05-22T06:02:01.270Z,12.00
2023-05-22T06:08:12.489Z,12.15
2023-05-22T06:14:21.709Z,12.55
2023-05-22T06:20:40.442Z,12.35
2023-05-22T06:26:49.250Z,12.23
2023-05-22T06:32:59.135Z,12.23
2023-05-22T06:39:11.242Z,12.98
2023-05-22T06:45:23.677Z,13.70
2023-05-22T06:51:32.737Z,12.23
2023-05-22T06:57:41.184Z,14.27
2023-05-22T07:03:51.040Z,12.13
2023-05-22T07:09:58.816Z,15.43
2023-05-22T07:16:09.496Z,12.18
2023-05-22T07:22:29.635Z,12.65
2023-05-22T07:28:34.306Z,15.57
2023-05-22T07:34:40.457Z,11.45
2023-05-22T07:40:46.044Z,9.07
2023-05-22T07:46:50.417Z,12.35
2023-05-22T07:52:54.458Z,9.75
2023-05-22T07:58:58.309Z,16.10
2023-05-22T08:05:02.530Z,13.05
2023-05-22T08:11:06.662Z,11.43
2023-05-22T08:17:12.225Z,11.10
2023-05-22T08:23:16.019Z,14.43
2023-05-22T08:29:21.033Z,11.90
2023-05-22T08:35:24.465Z,12.77
2023-05-22T08:47:34.090Z,10.95
2023-05-22T08:53:41.980Z,11.23
2023-05-22T08:59:46.435Z,12.38
2023-05-22T09:05:51.038Z,10.55
2023-05-22T09:11:56.186Z,12.05
2023-05-22T09:18:00.921Z,12.60
2023-05-22T09:24:03.869Z,15.73
2023-05-22T09:30:11.297Z,16.20
2023-05-22T09:36:17.143Z,11.20
2023-05-22T09:42:37.698Z,12.45
2023-05-22T09:48:41.532Z,10.55
2023-05-22T09:54:57.124Z,11.02
2023-05-22T10:01:02.905Z,10.35
2023-05-22T10:07:06.957Z,12.30
2023-05-22T10:13:17.949Z,12.25
2023-05-22T10:19:22.839Z,9.32
2023-05-22T10:25:26.676Z,11.55
2023-05-22T10:32:24.673Z,12.30
2023-05-22T10:38:50.875Z,12.82
2023-05-22T10:44:54.665Z,9.57
2023-05-22T10:50:59.808Z,9.98
2023-05-22T10:57:17.910Z,9.52
2023-05-22T11:03:24.077Z,9.50
2023-05-22T11:09:47.732Z,13.93
2023-05-22T11:15:51.692Z,9.77
2023-05-22T11:22:08.903Z,8.32
2023-05-22T11:28:13.608Z,11.30
2023-05-22T11:34:17.698Z,10.45
2023-05-22T11:40:25.895Z,8.57
2023-05-22T11:46:31.292Z,10.68
2023-05-22T11:52:37.826Z,11.10
2023-05-22T11:58:41.864Z,9.15
2023-05-22T12:04:45.708Z,8.98
2023-05-22T12:10:55.133Z,13.02
2023-05-22T12:17:07.325Z,10.13
2023-05-22T12:23:27.269Z,11.47
2023-05-22T12:29:31.131Z,13.65
2023-05-22T12:35:35.144Z,10.48
2023-05-22T12:41:39.234Z,10.98
2023-05-22T12:47:43.259Z,8.18
2023-05-22T12:53:46.521Z,13.32
2023-05-22T12:59:49.561Z,13.43
2023-05-22T13:05:52.285Z,10.85
2023-05-22T13:17:59.528Z,11.50
2023-05-22T13:24:02.225Z,9.48
2023-05-22T13:36:08.543Z,11.23
2023-05-22T13:42:12.598Z,28.60
2023-05-22T13:48:16.615Z,13.50
2023-05-22T13:54:20.692Z,14.55
2023-05-22T14:00:26.449Z,13.07
2023-05-22T14:06:33.282Z,8.60
2023-05-22T14:12:36.760Z,12.68
2023-05-22T14:18:40.277Z,11.75
2023-05-22T14:24:45.650Z,7.72
2023-05-22T14:30:53.139Z,7.90
2023-05-22T14:36:58.870Z,7.90
2023-05-22T14:43:02.003Z,7.00
2023-05-22T14:49:05.193Z,8.52
2023-05-22T14:55:08.209Z,8.95
2023-05-22T15:01:11.348Z,5.93
2023-05-22T15:07:14.542Z,6.65
2023-05-22T15:13:17.236Z,9.60
2023-05-22T15:19:20.112Z,7.60
2023-05-22T15:25:22.669Z,29.35
2023-05-22T15:31:31.145Z,22.35
2023-05-22T15:37:37.322Z,18.77
2023-05-22T15:43:41.450Z,14.43
2023-05-22T15:49:44.055Z,11.43
2023-05-22T15:55:49.070Z,12.23
2023-05-22T16:01:54.224Z,11.02
2023-05-22T16:07:57.519Z,12.98
2023-05-22T16:14:01.458Z,11.52
2023-05-22T16:20:06.019Z,11.60
2023-05-22T16:26:10.043Z,14.10
2023-05-22T16:32:13.478Z,12.95
2023-05-22T16:38:17.117Z,11.90
2023-05-22T16:44:23.011Z,17.52
2023-05-22T16:50:26.236Z,14.23
2023-05-22T16:56:29.853Z,12.23
2023-05-22T17:19:29.197Z,9.45
2023-05-22T17:25:32.806Z,12.38
2023-05-22T17:31:41.949Z,13.88
2023-05-22T17:37:44.403Z,10.93
2023-05-22T17:43:46.401Z,10.20
2023-05-22T17:49:48.825Z,11.07
2023-05-22T17:55:54.421Z,12.35
2023-05-22T18:02:03.300Z,12.18
2023-05-22T18:08:06.634Z,9.35
2023-05-22T18:14:08.757Z,11.67
2023-05-22T18:20:17.279Z,12.90
2023-05-22T18:26:19.694Z,14.82
2023-05-22T18:32:24.932Z,14.00
2023-05-22T18:38:27.857Z,15.95
2023-05-22T18:44:30.332Z,15.75
2023-05-22T18:50:32.446Z,17.05
2023-05-22T18:56:34.593Z,13.50
2023-05-22T19:02:39.099Z,13.27
2023-05-22T19:08:41.093Z,13.25
2023-05-22T19:14:42.989Z,11.73
2023-05-22T19:20:45.088Z,12.77
2023-05-22T19:26:47.232Z,9.18
2023-05-22T19:32:56.097Z,12.95
2023-05-22T19:38:58.120Z,9.55
2023-05-22T19:45:00.073Z,6.05
2023-05-22T19:51:03.993Z,7.47
2023-05-22T19:57:06.223Z,8.35
2023-05-22T20:03:08.423Z,7.68
2023-05-22T20:09:11.056Z,9.95
2023-05-22T20:15:14.996Z,9.52
2023-05-22T20:21:17.815Z,9.55
2023-05-22T20:27:20.099Z,8.57
2023-05-22T20:33:22.000Z,10.43
2023-05-22T20:39:24.087Z,9.82
2023-05-22T20:45:26.557Z,10.43
2023-05-22T20:51:32.716Z,10.70
2023-05-22T20:57:35.048Z,12.50
2023-05-22T21:03:37.635Z,13.55
2023-05-22T21:09:39.651Z,20.55
2023-05-22T21:15:41.601Z,18.25
2023-05-22T21:21:43.713Z,19.58
2023-05-22T21:27:48.374Z,21.75
2023-05-22T21:33:50.432Z,25.88
2023-05-22T21:39:52.352Z,30.92
2023-05-22T21:45:54.784Z,29.27
2023-05-22T21:51:56.787Z,38.95
2023-05-22T21:57:58.744Z,48.45
2023-05-22T22:04:00.748Z,50.03
2023-05-22T22:10:02.980Z,46.15
2023-05-22T22:16:05.861Z,44.30
2023-05-22T22:22:07.775Z,40.83
2023-05-22T22:28:09.865Z,38.47
2023-05-22T22:34:11.899Z,35.15
2023-05-22T22:40:15.156Z,33.50
2023-05-22T22:46:17.419Z,31.93
2023-05-22T22:52:20.195Z,31.58
2023-05-22T22:58:22.855Z,27.75
2023-05-22T23:04:25.075Z,33.92
2023-05-22T23:10:27.439Z,33.20
2023-05-22T23:16:29.992Z,31.48
2023-05-22T23:22:32.354Z,35.28
2023-05-22T23:28:34.492Z,36.78
2023-05-22T23:34:36.786Z,29.42
2023-05-22T23:40:42.637Z,30.15
2023-05-22T23:46:44.915Z,33.20
2023-05-22T23:52:48.600Z,28.88
2023-05-22T23:58:51.063Z,21.90
